Time;durP1;ratioP1;P1;durP2;ratioP2;P2;SDS_P1;SDS_P2;PMS_P1;PMS_P2;Temp;Humidity;BMP_temperature;BMP_pressure;BME280_temperature;BME280_humidity;BME280_pressure;Samples;Min_cycle;Max_cycle;Signal;HPM_P1;HPM_P2
2023/05/13 00:00:31;;;;;;;14.40;9.20;;;14.50;99.90;;;;;;5072259;28;20162;-48
2023/05/13 00:02:56;;;;;;;12.32;9.27;;;14.50;99.90;;;;;;5072181;28;20586;-48
2023/05/13 00:05:22;;;;;;;14.18;9.90;;;14.40;99.90;;;;;;5072380;28;20245;-48
2023/05/13 00:07:47;;;;;;;12.85;8.85;;;14.50;99.90;;;;;;5072124;28;20173;-49
2023/05/13 00:10:15;;;;;;;9.80;8.50;;;14.50;99.90;;;;;;5071797;28;20588;-48
2023/05/13 00:12:40;;;;;;;10.00;9.00;;;14.40;99.90;;;;;;5072232;28;20201;-48
2023/05/13 00:15:06;;;;;;;12.75;9.35;;;14.40;99.90;;;;;;5071952;28;20194;-48
2023/05/13 00:17:32;;;;;;;12.05;9.38;;;14.30;99.90;;;;;;5072037;28;20170;-48
2023/05/13 00:19:57;;;;;;;13.35;9.65;;;14.20;99.90;;;;;;5072200;28;20188;-48
2023/05/13 00:22:23;;;;;;;11.73;9.10;;;14.20;99.90;;;;;;5072325;28;20532;-48
2023/05/13 00:24:49;;;;;;;15.77;8.95;;;14.20;99.90;;;;;;5071842;28;20198;-48
2023/05/13 00:27:14;;;;;;;12.15;9.38;;;14.20;99.90;;;;;;5071520;28;20170;-48
2023/05/13 00:29:40;;;;;;;12.38;9.45;;;14.20;99.90;;;;;;5071717;28;20178;-48
2023/05/13 00:32:06;;;;;;;12.00;9.25;;;14.20;99.90;;;;;;5071977;28;20170;-48
2023/05/13 00:34:31;;;;;;;13.13;9.15;;;14.10;99.90;;;;;;5071771;28;20159;-48
2023/05/13 00:36:57;;;;;;;9.57;8.57;;;14.00;99.90;;;;;;5072015;28;20181;-48
2023/05/13 00:39:22;;;;;;;9.82;8.68;;;14.00;99.90;;;;;;5072021;28;20631;-48
2023/05/13 00:41:48;;;;;;;15.40;9.85;;;14.00;99.90;;;;;;5071927;28;20249;-48
2023/05/13 00:44:13;;;;;;;11.95;10.35;;;14.10;99.90;;;;;;5071710;28;20606;-50
2023/05/13 00:46:39;;;;;;;18.33;10.95;;;14.10;99.90;;;;;;5071573;28;20208;-49
2023/05/13 00:49:05;;;;;;;16.17;11.57;;;14.10;99.90;;;;;;5071589;28;20166;-48
2023/05/13 00:51:31;;;;;;;14.48;10.57;;;14.10;99.90;;;;;;5071830;28;20183;-48
2023/05/13 00:53:58;;;;;;;15.25;10.88;;;14.10;99.90;;;;;;5071827;28;20193;-48
2023/05/13 00:56:25;;;;;;;14.20;9.70;;;14.10;99.90;;;;;;5071756;28;20539;-49
2023/05/13 00:58:51;;;;;;;13.18;10.43;;;14.10;99.90;;;;;;5071909;28;20268;-48
2023/05/13 01:01:45;;;;;;;15.85;12.45;;;14.10;99.90;;;;;;5071428;28;20193;-49
2023/05/13 01:04:34;;;;;;;16.38;11.70;;;14.00;99.90;;;;;;5070567;28;20166;-50
2023/05/13 01:07:07;;;;;;;17.65;10.98;;;13.90;99.90;;;;;;5071288;28;20217;-48
2023/05/13 01:10:30;;;;;;;17.35;10.50;;;13.80;99.90;;;;;;5071420;28;20585;-48
2023/05/13 01:13:00;;;;;;;11.88;10.25;;;13.70;99.90;;;;;;5029293;28;20172;-48
2023/05/13 01:15:27;;;;;;;13.00;10.07;;;13.80;99.90;;;;;;5029229;28;20633;-48
2023/05/13 01:18:05;;;;;;;15.43;10.73;;;13.70;99.90;;;;;;5050696;28;20263;-48
2023/05/13 01:20:32;;;;;;;19.15;10.93;;;13.70;99.90;;;;;;5071569;28;20533;-48
2023/05/13 01:22:57;;;;;;;16.20;12.70;;;13.50;99.90;;;;;;5071545;28;20174;-48
2023/05/13 01:25:24;;;;;;;18.67;13.20;;;13.50;99.90;;;;;;5071626;28;20194;-48
2023/05/13 01:27:50;;;;;;;18.05;13.93;;;13.50;99.90;;;;;;5071599;28;20170;-48
2023/05/13 01:30:17;;;;;;;21.85;14.65;;;13.50;99.90;;;;;;5071388;28;20158;-48
2023/05/13 01:32:43;;;;;;;20.50;15.27;;;13.60;99.90;;;;;;5071147;28;20169;-48
2023/05/13 01:35:10;;;;;;;21.13;15.27;;;13.60;99.90;;;;;;5071253;28;20166;-49
2023/05/13 01:37:36;;;;;;;18.35;15.73;;;13.60;99.90;;;;;;5071226;28;20193;-48
2023/05/13 01:40:02;;;;;;;16.42;14.50;;;13.60;99.90;;;;;;5072259;28;20273;-49
2023/05/13 01:42:28;;;;;;;19.73;14.05;;;13.50;99.90;;;;;;5075174;28;20193;-49
2023/05/13 01:44:54;;;;;;;17.65;15.23;;;13.50;99.90;;;;;;5074808;28;20194;-48
2023/05/13 01:47:20;;;;;;;21.88;15.40;;;13.50;99.90;;;;;;5075320;28;20169;-48
2023/05/13 01:49:46;;;;;;;16.70;14.38;;;;;;;;;;5074942;28;20231;-48
2023/05/13 01:52:11;;;;;;;21.70;15.93;;;13.50;99.90;;;;;;5074614;28;20253;-48
2023/05/13 01:54:37;;;;;;;19.63;15.95;;;13.40;99.90;;;;;;5074758;28;20171;-48
2023/05/13 01:57:03;;;;;;;19.75;15.55;;;13.50;99.90;;;;;;5074695;28;20240;-48
2023/05/13 01:59:29;;;;;;;19.70;15.40;;;13.50;99.90;;;;;;5074833;28;20166;-48
2023/05/13 02:01:54;;;;;;;19.90;15.43;;;13.40;99.90;;;;;;5074843;28;20619;-48
2023/05/13 02:04:20;;;;;;;17.65;14.48;;;13.40;99.90;;;;;;5075164;28;20251;-48
2023/05/13 02:06:46;;;;;;;19.60;15.00;;;13.40;99.90;;;;;;5074286;28;20229;-48
2023/05/13 02:09:12;;;;;;;19.48;13.80;;;13.30;99.90;;;;;;5074323;28;20162;-48
2023/05/13 02:11:37;;;;;;;20.92;15.48;;;13.20;99.90;;;;;;5074604;28;20205;-48
2023/05/13 02:14:03;;;;;;;19.52;14.23;;;13.30;99.90;;;;;;5074368;28;20513;-48
2023/05/13 02:16:30;;;;;;;20.30;14.48;;;13.20;99.90;;;;;;5074552;28;20201;-48
2023/05/13 02:18:55;;;;;;;20.38;15.82;;;13.30;99.90;;;;;;5074266;28;20173;-49
2023/05/13 02:21:21;;;;;;;15.98;13.80;;;13.30;99.90;;;;;;5074598;28;20162;-48
2023/05/13 02:23:47;;;;;;;21.33;15.32;;;13.30;99.90;;;;;;5074182;28;20168;-48
2023/05/13 02:26:12;;;;;;;18.38;13.52;;;13.30;99.90;;;;;;5074279;28;20297;-48
2023/05/13 02:28:38;;;;;;;20.02;15.10;;;13.20;99.90;;;;;;5074090;28;20244;-48
2023/05/13 02:31:03;;;;;;;20.05;14.82;;;13.20;99.90;;;;;;5074038;28;20260;-48
2023/05/13 02:33:29;;;;;;;20.15;14.98;;;13.20;99.90;;;;;;5074063;28;20232;-48
2023/05/13 02:35:54;;;;;;;17.13;14.30;;;13.30;99.90;;;;;;5073928;28;20534;-48
2023/05/13 02:38:20;;;;;;;18.17;14.48;;;13.20;99.90;;;;;;5074295;28;20197;-48
2023/05/13 02:40:45;;;;;;;21.48;14.65;;;13.20;99.90;;;;;;5073910;28;20162;-48
2023/05/13 02:43:11;;;;;;;19.98;14.20;;;13.10;99.90;;;;;;5073878;28;20166;-48
2023/05/13 02:45:39;;;;;;;20.27;14.52;;;13.10;99.90;;;;;;5073699;28;20217;-48
2023/05/13 02:48:04;;;;;;;19.00;14.77;;;13.10;99.90;;;;;;5073719;28;20170;-48
2023/05/13 02:50:30;;;;;;;19.52;14.98;;;;;;;;;;5073294;28;20173;-48
2023/05/13 02:52:56;;;;;;;18.20;14.02;;;13.20;99.90;;;;;;5073876;28;20263;-48
2023/05/13 02:55:21;;;;;;;14.95;13.18;;;13.20;99.90;;;;;;5073983;28;20666;-48
2023/05/13 02:57:47;;;;;;;24.38;15.18;;;13.20;99.90;;;;;;5073580;28;20231;-50
2023/05/13 03:00:13;;;;;;;18.23;14.32;;;13.20;99.90;;;;;;5073568;28;20190;-49
2023/05/13 03:02:39;;;;;;;16.27;13.55;;;13.30;99.90;;;;;;5073523;28;20170;-48
2023/05/13 03:05:05;;;;;;;18.38;14.65;;;13.20;99.90;;;;;;5073449;28;20194;-48
2023/05/13 03:07:31;;;;;;;19.35;14.88;;;13.20;99.90;;;;;;5073271;28;20657;-48
2023/05/13 03:09:56;;;;;;;26.25;15.68;;;13.30;99.90;;;;;;5073307;28;20201;-48
2023/05/13 03:12:22;;;;;;;20.75;14.57;;;13.30;99.90;;;;;;5073673;28;20197;-48
2023/05/13 03:14:47;;;;;;;19.90;15.00;;;13.20;99.90;;;;;;5073472;28;20189;-47
2023/05/13 03:17:13;;;;;;;21.50;15.48;;;13.20;99.90;;;;;;5073146;28;20190;-46
2023/05/13 03:19:38;;;;;;;20.20;15.02;;;13.10;99.90;;;;;;5073121;28;20173;-48
2023/05/13 03:22:04;;;;;;;17.90;15.20;;;13.10;99.90;;;;;;5073097;28;20166;-54
2023/05/13 03:24:30;;;;;;;20.83;15.70;;;13.10;99.90;;;;;;5073094;28;20177;-54
2023/05/13 03:26:56;;;;;;;20.98;15.45;;;13.10;99.90;;;;;;5072887;28;20616;-50
2023/05/13 03:29:22;;;;;;;19.00;15.13;;;13.10;99.90;;;;;;5073349;28;20250;-56
2023/05/13 03:31:48;;;;;;;19.23;15.05;;;13.00;99.90;;;;;;5072833;28;20639;-56
2023/05/13 03:34:14;;;;;;;18.88;15.43;;;13.00;99.90;;;;;;5072771;28;20158;-48
2023/05/13 03:36:40;;;;;;;20.02;16.27;;;13.00;99.90;;;;;;5072784;28;20534;-48
2023/05/13 03:39:06;;;;;;;16.52;14.48;;;13.00;99.90;;;;;;5072675;28;20169;-48
2023/05/13 03:41:31;;;;;;;19.05;15.52;;;13.10;99.90;;;;;;5072635;28;20162;-48
2023/05/13 03:43:57;;;;;;;20.63;15.55;;;13.00;99.90;;;;;;5072576;28;20181;-48
2023/05/13 03:46:27;;;;;;;18.27;14.80;;;13.10;99.90;;;;;;5073085;28;20701;-49
2023/05/13 03:48:54;;;;;;;20.67;15.18;;;;;;;;;;5072531;28;20168;-49
2023/05/13 03:51:20;;;;;;;16.25;13.98;;;13.00;99.90;;;;;;5073121;28;20182;-48
2023/05/13 03:53:46;;;;;;;19.23;15.30;;;13.10;99.90;;;;;;5072490;28;20162;-48
2023/05/13 03:56:11;;;;;;;17.80;13.90;;;13.00;99.90;;;;;;5072281;28;20511;-49
2023/05/13 03:58:37;;;;;;;18.10;14.68;;;13.00;99.90;;;;;;5072366;28;20162;-48
2023/05/13 04:01:03;;;;;;;19.05;15.02;;;13.00;99.90;;;;;;5072293;28;20166;-48
2023/05/13 04:03:30;;;;;;;18.75;14.30;;;13.00;99.90;;;;;;5071463;28;20507;-48
2023/05/13 04:05:55;;;;;;;18.98;15.52;;;13.00;99.90;;;;;;5072087;28;20226;-48
2023/05/13 04:08:21;;;;;;;19.40;14.75;;;13.00;99.90;;;;;;5072989;28;20663;-48
2023/05/13 04:10:47;;;;;;;23.45;14.50;;;13.00;99.90;;;;;;5072141;28;20170;-48
2023/05/13 04:13:12;;;;;;;17.75;14.73;;;13.00;99.90;;;;;;5072089;28;20166;-48
2023/05/13 04:15:38;;;;;;;23.88;15.43;;;13.10;99.90;;;;;;5072045;28;20162;-48
2023/05/13 04:18:03;;;;;;;23.05;14.60;;;13.10;99.90;;;;;;5071969;28;20174;-48
2023/05/13 04:20:29;;;;;;;15.70;13.27;;;13.10;99.90;;;;;;5071999;28;20161;-48
2023/05/13 04:22:55;;;;;;;21.17;14.90;;;;;;;;;;5071931;28;20170;-48
2023/05/13 04:25:21;;;;;;;21.30;15.50;;;13.20;99.90;;;;;;5072228;28;20250;-48
2023/05/13 04:27:46;;;;;;;19.58;13.32;;;13.20;99.90;;;;;;5071856;28;20249;-48
2023/05/13 04:30:12;;;;;;;21.17;14.38;;;13.20;99.90;;;;;;5071758;28;20166;-48
2023/05/13 04:32:38;;;;;;;21.45;15.27;;;13.30;99.90;;;;;;5071752;28;20220;-48
2023/05/13 04:35:05;;;;;;;21.30;15.55;;;13.30;99.90;;;;;;5071864;28;20650;-48
2023/05/13 04:37:31;;;;;;;20.05;14.40;;;13.40;99.90;;;;;;5071975;28;20249;-48
2023/05/13 04:39:56;;;;;;;18.00;14.25;;;13.40;99.90;;;;;;5071698;28;20229;-48
2023/05/13 04:42:22;;;;;;;17.17;13.65;;;13.40;99.90;;;;;;5072022;28;20172;-48
2023/05/13 04:44:47;;;;;;;18.23;14.15;;;13.40;99.90;;;;;;5071823;28;20252;-49
2023/05/13 04:47:13;;;;;;;23.63;13.80;;;13.50;99.90;;;;;;5071695;28;20212;-48
2023/05/13 04:49:38;;;;;;;16.88;14.35;;;13.50;99.90;;;;;;5071603;28;20174;-48
2023/05/13 04:52:05;;;;;;;19.42;13.65;;;13.40;99.90;;;;;;5071561;28;20630;-48
2023/05/13 04:54:30;;;;;;;15.73;13.82;;;13.40;99.90;;;;;;5071570;28;20166;-48
2023/05/13 04:56:56;;;;;;;17.17;12.75;;;13.40;99.90;;;;;;5071609;28;20189;-48
2023/05/13 04:59:21;;;;;;;16.20;12.80;;;13.30;99.90;;;;;;5071860;28;20248;-48
2023/05/13 05:01:48;;;;;;;19.92;13.60;;;13.40;99.90;;;;;;5071428;28;20184;-48
2023/05/13 05:04:13;;;;;;;23.33;13.13;;;13.40;99.90;;;;;;5071479;28;20166;-48
2023/05/13 05:06:39;;;;;;;15.30;13.00;;;13.70;99.90;;;;;;5071261;28;20229;-48
2023/05/13 05:09:05;;;;;;;17.25;12.95;;;13.70;99.90;;;;;;5071430;28;20572;-48
2023/05/13 05:11:30;;;;;;;24.73;12.43;;;13.70;99.90;;;;;;5071404;28;20170;-48
2023/05/13 05:13:56;;;;;;;16.23;13.68;;;13.90;99.90;;;;;;5072379;28;20259;-48
2023/05/13 05:16:22;;;;;;;17.17;12.73;;;13.90;99.90;;;;;;5075909;28;20519;-48
2023/05/13 05:18:48;;;;;;;16.65;12.57;;;13.90;99.90;;;;;;5075877;28;20257;-48
2023/05/13 05:21:13;;;;;;;14.15;12.35;;;13.80;99.90;;;;;;5075345;28;20197;-48
2023/05/13 05:23:40;;;;;;;14.95;12.10;;;;;;;;;;5075583;28;20177;-48
2023/05/13 05:26:05;;;;;;;16.95;13.43;;;13.70;99.90;;;;;;5075352;28;20209;-50
2023/05/13 05:28:31;;;;;;;17.35;13.23;;;13.60;99.90;;;;;;5075213;28;20173;-48
2023/05/13 05:30:56;;;;;;;15.77;13.02;;;13.60;99.90;;;;;;5075225;28;20255;-48
2023/05/13 05:33:23;;;;;;;20.23;13.68;;;;;;;;;;5075509;28;20190;-48
2023/05/13 05:35:48;;;;;;;15.05;12.82;;;13.60;99.90;;;;;;5075755;28;20261;-48
2023/05/13 05:38:14;;;;;;;15.77;13.75;;;13.60;99.90;;;;;;5075330;28;20270;-48
2023/05/13 05:40:44;;;;;;;16.00;12.05;;;13.60;99.90;;;;;;5075191;28;20178;-48
2023/05/13 05:43:10;;;;;;;14.70;12.85;;;13.60;99.90;;;;;;5074930;28;20197;-48
2023/05/13 05:45:39;;;;;;;18.65;11.93;;;13.60;99.90;;;;;;5075025;28;20533;-48
2023/05/13 05:48:05;;;;;;;14.45;12.65;;;13.70;99.90;;;;;;5074891;28;20216;-48
2023/05/13 05:50:32;;;;;;;14.52;12.68;;;13.80;99.90;;;;;;5074770;28;20503;-48
2023/05/13 05:52:58;;;;;;;19.95;12.32;;;13.80;99.90;;;;;;5074660;28;20579;-48
2023/05/13 05:55:24;;;;;;;18.83;12.82;;;13.80;99.90;;;;;;5074956;28;20174;-48
2023/05/13 05:57:49;;;;;;;14.15;12.63;;;13.90;99.90;;;;;;5075015;28;20163;-48
2023/05/13 06:00:15;;;;;;;16.27;12.93;;;13.90;99.90;;;;;;5074585;28;20227;-52
2023/05/13 06:02:41;;;;;;;14.88;12.25;;;13.70;99.90;;;;;;5074585;28;20227;-53
2023/05/13 06:05:07;;;;;;;14.93;12.73;;;13.90;99.90;;;;;;5074453;28;20204;-56
2023/05/13 06:07:32;;;;;;;19.35;12.38;;;13.90;99.90;;;;;;5074686;28;20262;-53
2023/05/13 06:09:58;;;;;;;17.75;13.25;;;14.00;99.90;;;;;;5074401;28;20210;-53
2023/05/13 06:12:24;;;;;;;15.73;12.60;;;14.10;99.90;;;;;;5074427;28;20183;-54
2023/05/13 06:14:49;;;;;;;20.83;13.68;;;14.10;99.90;;;;;;5074913;28;20173;-52
2023/05/13 06:17:15;;;;;;;14.20;12.25;;;14.20;99.90;;;;;;5074227;28;20627;-54
2023/05/13 06:19:44;;;;;;;15.63;12.52;;;14.30;99.90;;;;;;5074207;28;20549;-53
2023/05/13 06:22:10;;;;;;;15.15;11.98;;;14.30;99.90;;;;;;5074126;28;20656;-54
2023/05/13 06:24:36;;;;;;;18.08;12.57;;;14.20;99.90;;;;;;5074044;28;20162;-55
2023/05/13 06:27:02;;;;;;;18.13;12.75;;;14.30;99.90;;;;;;5073153;28;20206;-53
2023/05/13 06:29:28;;;;;;;17.23;11.75;;;14.20;99.90;;;;;;5073893;28;20166;-55
2023/05/13 06:31:53;;;;;;;16.88;12.55;;;14.30;99.90;;;;;;5073811;28;20173;-55
2023/05/13 06:34:19;;;;;;;13.88;12.32;;;14.30;99.90;;;;;;5074223;28;20631;-53
2023/05/13 06:36:45;;;;;;;14.23;12.10;;;14.40;99.90;;;;;;5073762;28;20181;-54
2023/05/13 06:39:11;;;;;;;17.83;12.02;;;14.40;99.90;;;;;;5073802;28;20603;-56
2023/05/13 06:41:37;;;;;;;13.88;12.43;;;14.50;99.90;;;;;;5073859;28;20660;-53
2023/05/13 06:44:04;;;;;;;14.93;12.10;;;14.40;99.90;;;;;;5074021;28;20173;-55
2023/05/13 06:46:29;;;;;;;14.57;11.75;;;14.40;99.90;;;;;;5073926;28;20205;-49
2023/05/13 06:48:56;;;;;;;14.32;11.60;;;14.70;99.90;;;;;;5073681;28;20174;-51
2023/05/13 06:51:22;;;;;;;15.38;11.75;;;;;;;;;;5074265;28;20204;-48
2023/05/13 06:53:48;;;;;;;14.20;11.85;;;14.90;99.90;;;;;;5074101;28;20189;-49
2023/05/13 06:56:13;;;;;;;18.98;12.45;;;15.00;99.90;;;;;;5073615;28;20596;-49
2023/05/13 06:58:39;;;;;;;14.23;12.10;;;15.10;99.90;;;;;;5073519;28;20166;-50
2023/05/13 07:01:04;;;;;;;19.30;12.20;;;15.20;99.90;;;;;;5073484;28;20205;-50
2023/05/13 07:03:30;;;;;;;18.65;11.55;;;15.30;99.90;;;;;;5073436;28;20499;-51
2023/05/13 07:05:56;;;;;;;13.82;11.02;;;15.40;99.90;;;;;;5073090;28;20225;-49
2023/05/13 07:08:22;;;;;;;11.98;10.77;;;15.40;99.90;;;;;;5073958;28;20249;-51
2023/05/13 07:10:47;;;;;;;14.95;11.48;;;15.40;99.90;;;;;;5073857;28;20174;-50
2023/05/13 07:13:13;;;;;;;14.30;11.40;;;15.40;99.90;;;;;;5071983;28;20627;-50
2023/05/13 07:15:39;;;;;;;13.75;12.00;;;15.60;99.90;;;;;;5073132;28;20170;-50
2023/05/13 07:18:04;;;;;;;13.73;11.50;;;15.90;99.90;;;;;;5073197;28;20627;-50
2023/05/13 07:20:30;;;;;;;15.88;11.93;;;;;;;;;;5073368;28;20511;-48
2023/05/13 07:22:56;;;;;;;17.50;11.15;;;16.20;99.90;;;;;;5073019;28;20678;-46
2023/05/13 07:25:22;;;;;;;12.57;11.10;;;;;;;;;;5073184;28;20288;-45
2023/05/13 07:27:48;;;;;;;14.48;11.82;;;16.60;99.90;;;;;;5072083;28;20273;-46
2023/05/13 07:30:13;;;;;;;14.75;11.32;;;16.60;99.90;;;;;;5072887;28;20170;-46
2023/05/13 07:32:40;;;;;;;14.55;11.90;;;17.00;99.90;;;;;;5073102;28;20176;-48
2023/05/13 07:35:06;;;;;;;12.05;10.75;;;17.10;99.90;;;;;;5072854;28;20173;-46
2023/05/13 07:37:31;;;;;;;12.23;10.73;;;17.10;99.90;;;;;;5071663;28;20266;-47
2023/05/13 07:39:57;;;;;;;12.77;10.90;;;17.20;99.90;;;;;;5072708;28;20198;-46
2023/05/13 07:42:23;;;;;;;16.83;11.20;;;17.30;99.90;;;;;;5072608;28;20197;-48
2023/05/13 07:44:49;;;;;;;13.88;11.55;;;17.30;99.90;;;;;;5072948;28;20320;-46
2023/05/13 07:47:14;;;;;;;15.55;10.82;;;17.50;99.90;;;;;;5072536;28;20707;-48
2023/05/13 07:49:40;;;;;;;16.73;10.70;;;17.70;99.90;;;;;;5072798;28;20653;-44
2023/05/13 07:52:05;;;;;;;12.43;10.23;;;17.70;99.90;;;;;;5072448;28;20591;-49
2023/05/13 07:54:31;;;;;;;12.57;10.20;;;17.60;99.90;;;;;;5072652;28;20614;-47
2023/05/13 07:56:57;;;;;;;12.43;10.65;;;17.60;99.90;;;;;;5071158;28;20185;-48
2023/05/13 07:59:22;;;;;;;14.13;11.07;;;17.80;99.90;;;;;;5072407;28;20166;-46
2023/05/13 08:01:48;;;;;;;12.00;10.48;;;18.00;99.90;;;;;;5072707;28;20170;-47
2023/05/13 08:04:13;;;;;;;16.67;10.50;;;18.10;99.90;;;;;;5072243;28;20165;-47
2023/05/13 08:06:39;;;;;;;11.25;9.50;;;18.20;99.90;;;;;;5071954;28;20230;-46
2023/05/13 08:09:05;;;;;;;11.50;10.02;;;18.20;99.90;;;;;;5072130;28;20167;-46
2023/05/13 08:11:30;;;;;;;10.88;9.77;;;18.20;99.90;;;;;;5072347;28;20209;-46
2023/05/13 08:13:56;;;;;;;13.20;8.88;;;18.00;99.90;;;;;;5072126;28;20185;-46
2023/05/13 08:16:22;;;;;;;14.85;9.80;;;;;;;;;;5072028;28;20179;-46
2023/05/13 08:18:48;;;;;;;13.65;9.68;;;18.10;99.90;;;;;;5072400;28;20169;-47
2023/05/13 08:21:13;;;;;;;14.15;9.60;;;17.90;99.90;;;;;;5070697;28;20174;-46
2023/05/13 08:23:39;;;;;;;11.07;9.38;;;18.10;99.90;;;;;;5071951;28;20185;-46
2023/05/13 08:26:04;;;;;;;14.43;10.55;;;18.20;99.90;;;;;;5071971;28;20216;-46
2023/05/13 08:28:30;;;;;;;12.43;10.73;;;18.50;99.90;;;;;;5071842;28;20172;-46
2023/05/13 08:31:01;;;;;;;14.00;9.27;;;18.90;99.90;;;;;;5072031;28;20587;-46
2023/05/13 08:33:30;;;;;;;11.00;10.00;;;19.10;99.90;;;;;;5072035;28;20178;-46
2023/05/13 08:35:56;;;;;;;11.73;9.70;;;19.20;99.90;;;;;;5071754;28;20189;-48
2023/05/13 08:38:22;;;;;;;10.68;9.68;;;;;;;;;;5071684;28;20189;-46
2023/05/13 08:40:47;;;;;;;13.20;9.65;;;19.40;99.90;;;;;;5072103;28;20178;-46
2023/05/13 08:43:15;;;;;;;12.48;9.20;;;19.80;99.90;;;;;;5071593;28;20165;-47
2023/05/13 08:45:43;;;;;;;13.23;9.50;;;19.80;99.90;;;;;;5071546;28;20289;-47
2023/05/13 08:48:10;;;;;;;10.65;8.52;;;20.00;99.90;;;;;;5071414;28;20186;-48
2023/05/13 08:50:36;;;;;;;15.88;9.38;;;;;;;;;;5071484;28;20161;-46
2023/05/13 08:53:01;;;;;;;13.63;9.45;;;19.70;99.90;;;;;;5071616;28;20170;-47
2023/05/13 08:55:27;;;;;;;10.18;8.40;;;19.90;99.90;;;;;;5071501;28;20176;-46
2023/05/13 08:57:53;;;;;;;14.10;8.55;;;20.20;99.90;;;;;;5071815;28;20210;-46
2023/05/13 09:00:19;;;;;;;10.65;8.85;;;20.50;99.90;;;;;;5072055;28;20294;-47
2023/05/13 09:02:45;;;;;;;12.38;9.55;;;20.80;99.90;;;;;;5071684;28;20681;-46
2023/05/13 09:05:11;;;;;;;9.80;8.82;;;20.90;99.90;;;;;;5071157;28;20166;-48
2023/05/13 09:07:37;;;;;;;11.68;8.60;;;20.80;99.90;;;;;;5071351;28;20193;-47
2023/05/13 09:10:04;;;;;;;9.70;8.20;;;20.60;99.90;;;;;;5071170;28;20256;-46
2023/05/13 09:12:42;;;;;;;10.52;7.88;;;20.20;99.90;;;;;;5071607;28;20178;-46
2023/05/13 09:15:11;;;;;;;9.35;7.60;;;20.00;99.90;;;;;;5071574;28;20261;-46
2023/05/13 09:17:38;;;;;;;11.55;8.10;;;20.10;99.90;;;;;;5069920;28;20162;-47
2023/05/13 09:20:07;;;;;;;10.07;8.40;;;20.10;99.90;;;;;;5071370;28;20170;-46
2023/05/13 09:22:33;;;;;;;13.07;7.82;;;20.10;99.90;;;;;;5071234;28;20529;-46
2023/05/13 09:24:59;;;;;;;9.68;6.88;;;20.40;99.90;;;;;;5071054;28;20257;-47
2023/05/13 09:27:39;;;;;;;9.80;7.20;;;20.50;99.90;;;;;;5071195;28;20176;-46
2023/05/13 09:30:06;;;;;;;11.57;7.60;;;20.50;99.90;;;;;;5071241;28;20247;-46
2023/05/13 09:32:31;;;;;;;9.70;7.85;;;20.50;99.90;;;;;;5071121;28;20162;-47
2023/05/13 09:35:08;;;;;;;12.35;8.60;;;20.50;99.90;;;;;;5071178;28;20252;-46
2023/05/13 09:37:34;;;;;;;12.30;10.48;;;20.50;99.90;;;;;;5071302;28;20177;-46
2023/05/13 09:39:59;;;;;;;11.25;9.00;;;20.60;99.90;;;;;;5071123;28;20170;-46
2023/05/13 09:42:25;;;;;;;13.55;9.63;;;20.50;99.90;;;;;;5071044;28;20193;-47
2023/05/13 09:44:51;;;;;;;9.63;8.60;;;20.60;99.90;;;;;;5071385;28;20227;-46
2023/05/13 09:47:16;;;;;;;11.77;8.50;;;20.60;99.90;;;;;;5071666;28;20259;-46
2023/05/13 09:49:58;;;;;;;11.77;8.82;;;20.80;99.90;;;;;;5070945;28;20166;-46
2023/05/13 09:52:23;;;;;;;10.77;8.60;;;20.90;99.90;;;;;;5070897;28;20231;-46
2023/05/13 09:54:49;;;;;;;11.32;8.55;;;20.90;99.90;;;;;;5071414;28;20162;-46
2023/05/13 09:57:15;;;;;;;10.85;8.32;;;21.00;99.90;;;;;;5070942;28;20173;-47
2023/05/13 09:59:40;;;;;;;9.25;7.63;;;20.90;99.90;;;;;;5071146;28;20217;-48
2023/05/13 10:02:09;;;;;;;10.57;7.72;;;21.00;99.90;;;;;;5073887;28;20174;-47
2023/05/13 10:04:34;;;;;;;8.27;7.30;;;21.30;99.90;;;;;;5074615;28;20249;-46
2023/05/13 10:07:02;;;;;;;8.82;7.88;;;21.30;99.90;;;;;;5074221;28;20321;-47
2023/05/13 10:09:33;;;;;;;11.13;7.95;;;21.30;99.90;;;;;;5074425;28;20162;-47
2023/05/13 10:12:02;;;;;;;15.15;7.57;;;21.30;99.90;;;;;;5074484;28;20167;-48
2023/05/13 10:14:28;;;;;;;7.90;7.10;;;21.20;99.90;;;;;;5074387;28;20162;-47
2023/05/13 10:16:55;;;;;;;9.10;7.28;;;21.40;99.90;;;;;;5074335;28;20234;-46
2023/05/13 10:19:23;;;;;;;13.00;8.18;;;21.40;99.90;;;;;;5074945;28;20511;-47
2023/05/13 10:21:49;;;;;;;10.32;7.75;;;;;;;;;;5074679;28;20254;-46
2023/05/13 10:24:14;;;;;;;8.98;6.55;;;21.60;99.90;;;;;;5074234;28;20631;-47
2023/05/13 10:26:42;;;;;;;9.18;6.22;;;21.60;99.90;;;;;;5074030;28;20217;-47
2023/05/13 10:29:10;;;;;;;8.40;5.18;;;21.80;99.90;;;;;;5074062;28;20162;-46
2023/05/13 10:31:36;;;;;;;9.73;5.40;;;22.00;99.90;;;;;;5074105;28;20188;-46
2023/05/13 10:34:03;;;;;;;6.30;4.90;;;21.90;99.90;;;;;;5074145;28;20198;-46
2023/05/13 10:36:49;;;;;;;10.13;5.55;;;21.80;99.90;;;;;;5074083;28;20158;-46
2023/05/13 10:39:51;;;;;;;9.25;5.30;;;22.00;99.90;;;;;;5074119;28;20174;-45
2023/05/13 10:42:31;;;;;;;9.30;5.65;;;22.00;99.90;;;;;;5074246;28;20210;-45
2023/05/13 10:44:57;;;;;;;9.10;4.82;;;22.00;99.90;;;;;;5073747;28;20166;-45
2023/05/13 10:47:23;;;;;;;7.20;5.20;;;22.10;99.90;;;;;;5073781;28;20297;-45
2023/05/13 10:49:52;;;;;;;7.35;5.15;;;22.10;99.90;;;;;;5074145;28;20212;-46
2023/05/13 10:52:17;;;;;;;11.80;5.25;;;22.20;99.90;;;;;;5074291;28;20181;-47
2023/05/13 10:54:55;;;;;;;6.03;5.25;;;22.30;99.90;;;;;;5073571;28;20241;-47
2023/05/13 10:57:27;;;;;;;5.75;5.13;;;22.30;99.90;;;;;;5073563;28;20218;-45
2023/05/13 11:00:12;;;;;;;7.13;5.10;;;22.50;99.90;;;;;;5073419;28;20542;-46
2023/05/13 11:02:37;;;;;;;5.15;4.53;;;22.60;99.90;;;;;;5073486;28;20162;-46
2023/05/13 11:05:04;;;;;;;4.88;3.97;;;22.90;99.90;;;;;;5073165;28;20181;-47
2023/05/13 11:07:30;;;;;;;7.93;4.22;;;;;;;;;;5073093;28;20650;-46
2023/05/13 11:09:56;;;;;;;7.57;5.32;;;22.50;99.90;;;;;;5072629;28;20212;-46
2023/05/13 11:12:21;;;;;;;4.28;3.80;;;22.80;99.90;;;;;;5072468;28;20170;-47
2023/05/13 11:14:47;;;;;;;5.85;4.50;;;;;;;;;;5073518;28;20202;-46
2023/05/13 11:17:18;;;;;;;8.68;4.72;;;23.00;99.90;;;;;;5073057;28;20235;-45
2023/05/13 11:19:47;;;;;;;4.47;3.83;;;23.10;99.90;;;;;;5073250;28;20177;-45
2023/05/13 11:22:17;;;;;;;4.93;3.95;;;23.30;99.90;;;;;;5073113;28;20162;-46
2023/05/13 11:25:05;;;;;;;6.93;3.97;;;23.30;99.90;;;;;;5072940;28;20162;-46
2023/05/13 11:27:39;;;;;;;6.13;3.55;;;23.30;99.90;;;;;;5073164;28;20193;-45
2023/05/13 11:30:06;;;;;;;5.80;3.60;;;23.10;99.40;;;;;;5072975;28;20231;-45
2023/05/13 11:33:11;;;;;;;4.88;3.35;;;23.20;99.80;;;;;;5072923;28;20169;-46
2023/05/13 11:35:36;;;;;;;5.82;4.15;;;23.60;99.30;;;;;;5051782;28;20528;-45
2023/05/13 11:38:03;;;;;;;5.13;3.55;;;23.60;98.90;;;;;;5072782;28;20162;-46
2023/05/13 11:40:30;;;;;;;4.65;3.45;;;23.60;94.50;;;;;;5072710;28;20574;-46
2023/05/13 11:42:56;;;;;;;5.05;3.67;;;23.60;94.30;;;;;;5072919;28;20173;-46
2023/05/13 11:45:23;;;;;;;6.95;4.00;;;23.80;95.00;;;;;;5072566;28;20193;-47
2023/05/13 11:47:49;;;;;;;7.93;3.63;;;23.90;94.10;;;;;;5072843;28;20159;-46
2023/05/13 11:50:26;;;;;;;5.05;3.22;;;23.90;94.10;;;;;;5072012;28;20166;-46
2023/05/13 11:52:53;;;;;;;5.28;3.90;;;23.90;92.20;;;;;;5072415;28;20563;-47
2023/05/13 11:55:30;;;;;;;5.45;3.13;;;23.80;92.90;;;;;;5072698;28;20228;-46
2023/05/13 11:57:56;;;;;;;6.75;3.35;;;24.00;92.00;;;;;;5072620;28;20174;-47
2023/05/13 12:00:33;;;;;;;6.13;3.38;;;24.10;90.40;;;;;;5070911;28;20170;-47
2023/05/13 12:03:01;;;;;;;4.75;2.95;;;24.00;88.50;;;;;;5072129;28;20172;-47
2023/05/13 12:05:27;;;;;;;4.57;3.22;;;24.20;91.30;;;;;;5068156;28;20213;-50
2023/05/13 12:07:57;;;;;;;5.93;3.13;;;23.60;91.10;;;;;;5061280;28;20647;-47
2023/05/13 12:10:23;;;;;;;8.95;2.70;;;22.30;92.30;;;;;;5052990;28;20209;-46
2023/05/13 12:12:49;;;;;;;5.15;2.70;;;21.90;93.20;;;;;;5052243;28;20627;-48
2023/05/13 12:15:16;;;;;;;2.50;2.30;;;22.00;94.40;;;;;;5052107;28;20189;-48
2023/05/13 12:17:42;;;;;;;3.65;2.42;;;21.40;95.20;;;;;;5052021;28;20167;-46
2023/05/13 12:20:12;;;;;;;4.05;2.70;;;21.30;96.10;;;;;;5052327;28;20174;-49
2023/05/13 12:22:43;;;;;;;3.53;2.50;;;20.80;97.00;;;;;;5051950;28;20654;-46
2023/05/13 12:25:41;;;;;;;4.32;2.55;;;20.70;98.20;;;;;;5051091;28;20179;-50
2023/05/13 12:28:20;;;;;;;2.67;2.45;;;20.50;99.00;;;;;;5051577;28;20186;-49
2023/05/13 12:30:59;;;;;;;5.15;2.47;;;20.50;99.90;;;;;;5051935;28;20174;-50
2023/05/13 12:33:33;;;;;;;3.05;2.15;;;20.40;99.90;;;;;;5052005;28;20177;-45
2023/05/13 12:36:34;;;;;;;2.40;2.20;;;20.60;99.90;;;;;;5050275;28;20539;-46
2023/05/13 12:39:02;;;;;;;3.33;2.38;;;21.30;99.80;;;;;;5051528;28;20158;-45